Etusivu
METAR-TAF:

METAR-TAF

Lentoasemat :

Heringsdorf, Saksa

Leveyspiiri: 53-53N, Pituuspiiri: 014-09E, korkeus merenpinnasta: 28 m

Tämänhetkinen sää

Tämä raportti tehtiin 33 minuuttia sitten, kello 07.50 UTC
Tuuli 5 kn etelästä/lounaasta, vaihdellen etelän ja lännen välillä
Lämpötila 19°C
Kosteus 68%
Ilmanpaine 1014 hPa
Näkyvyys 10 km tai enemmän
ei pilviä alle 1500 m:ssä eikä cumulonimbus-pilviä

METAR: EDAH 140750Z 21005KT 170V280 CAVOK 19/13 Q1014

Aika: 10:23 (08:23 UTC)

Sääennuste

Tämä raportti tehtiin 3 tuntia ja 23 minuuttia sitten, kello 05.00 UTC
Ennuste voimassa 14. päivästä klo 06 UTC - 14. päivään klo 15 UTC
Tuuli 6 kn etelästä/lounaasta
Näkyvyys 10 km tai enemmän
ei pilviä alle 1500 m:ssä eikä cumulonimbus-pilviä

TAF: EDAH 140500Z 1406/1415 21006KT CAVOK

Säähavainnot ja -ennusteet yli 4000 lentoasemalta (METAR- ja TAF-raportit).

Käytössä olevat sääasemat on merkitty karttaan keltaisilla ja punaisilla pisteillä.

Aseta hiiri pisteen päälle nähdäksesi sääaseman nimen.

Klikkaa sitten nähdäksesi säähavainnot ja -ennusteet.

Kartan vaihtaminen: klikkaa mustalla rastilla varustettuja vihreitä pisteitä, niin voit zoomata sisään; viivalla varustettua vihreää pistettä, niin voit zoomata ulos tai vihreitä nuolia, niin pääset viereisille kartoille.


METAR-TAF: